sensor_id;sensor_type;location;lat;lon;timestamp;pressure;altitude;pressure_sealevel;temperature;humidity
72086;BME280;64750;52.134;5.424;2023-01-15T00:02:16;99966.84;;;7.30;80.38
72086;BME280;64750;52.134;5.424;2023-01-15T00:04:43;99959.94;;;7.29;79.69
72086;BME280;64750;52.134;5.424;2023-01-15T00:07:09;99958.25;;;7.28;79.03
72086;BME280;64750;52.134;5.424;2023-01-15T00:09:36;99959.81;;;7.30;79.79
72086;BME280;64750;52.134;5.424;2023-01-15T00:12:02;99965.16;;;7.29;79.37
72086;BME280;64750;52.134;5.424;2023-01-15T00:14:29;99965.16;;;7.29;79.37
72086;BME280;64750;52.134;5.424;2023-01-15T00:16:55;99968.44;;;7.32;79.69
72086;BME280;64750;52.134;5.424;2023-01-15T00:19:22;99964.97;;;7.32;79.36
72086;BME280;64750;52.134;5.424;2023-01-15T00:21:48;99967.66;;;7.30;79.53
72086;BME280;64750;52.134;5.424;2023-01-15T00:24:15;99960.75;;;7.29;79.56
72086;BME280;64750;52.134;5.424;2023-01-15T00:27:00;99961.63;;;7.30;80.01
72086;BME280;64750;52.134;5.424;2023-01-15T00:29:45;99965.16;;;7.29;79.62
72086;BME280;64750;52.134;5.424;2023-01-15T00:32:11;99959.94;;;7.29;79.38
72086;BME280;64750;52.134;5.424;2023-01-15T00:34:38;99953.78;;;7.30;79.40
72086;BME280;64750;52.134;5.424;2023-01-15T00:37:04;99964.31;;;7.28;78.89
72086;BME280;64750;52.134;5.424;2023-01-15T00:39:31;99958.06;;;7.31;79.26
72086;BME280;64750;52.134;5.424;2023-01-15T00:41:58;99957.31;;;7.29;79.16
72086;BME280;64750;52.134;5.424;2023-01-15T00:44:25;99965.16;;;7.29;78.81
72086;BME280;64750;52.134;5.424;2023-01-15T00:46:51;99957.97;;;7.32;79.04
72086;BME280;64750;52.134;5.424;2023-01-15T00:49:18;99958.06;;;7.31;79.52
72086;BME280;64750;52.134;5.424;2023-01-15T00:51:44;99953.66;;;7.31;79.83
72086;BME280;64750;52.134;5.424;2023-01-15T00:54:10;99958.06;;;7.31;79.88
72086;BME280;64750;52.134;5.424;2023-01-15T00:56:37;99956.38;;;7.30;80.39
72086;BME280;64750;52.134;5.424;2023-01-15T00:59:04;99965.16;;;7.29;80.26
72086;BME280;64750;52.134;5.424;2023-01-15T01:01:31;99958.25;;;7.28;80.16
72086;BME280;64750;52.134;5.424;2023-01-15T01:03:58;99961.72;;;7.28;80.43
72086;BME280;64750;52.134;5.424;2023-01-15T01:06:25;99957.22;;;7.30;80.25
72086;BME280;64750;52.134;5.424;2023-01-15T01:08:52;99963.47;;;7.28;80.27
72086;BME280;64750;52.134;5.424;2023-01-15T01:11:21;99965.34;;;7.26;80.66
72086;BME280;64750;52.134;5.424;2023-01-15T01:13:49;99955.72;;;7.26;81.00
72086;BME280;64750;52.134;5.424;2023-01-15T01:19:04;99954.97;;;7.24;80.75
72086;BME280;64750;52.134;5.424;2023-01-15T01:21:31;99961.97;;;7.23;80.48
72086;BME280;64750;52.134;5.424;2023-01-15T01:23:58;99952.66;;;7.19;80.65
72086;BME280;64750;52.134;5.424;2023-01-15T01:26:26;99965.88;;;7.16;79.79
72086;BME280;64750;52.134;5.424;2023-01-15T01:28:53;99982.22;;;7.20;80.18
72086;BME280;64750;52.134;5.424;2023-01-15T01:31:20;99979.63;;;7.20;80.21
72086;BME280;64750;52.134;5.424;2023-01-15T01:33:49;99964.03;;;7.18;79.48
72086;BME280;64750;52.134;5.424;2023-01-15T01:36:16;99975.31;;;7.19;79.87
72086;BME280;64750;52.134;5.424;2023-01-15T01:38:42;99964.97;;;7.17;79.96
72086;BME280;64750;52.134;5.424;2023-01-15T01:41:09;99978.13;;;7.16;80.06
72086;BME280;64750;52.134;5.424;2023-01-15T01:46:18;99983.44;;;7.14;79.99
72086;BME280;64750;52.134;5.424;2023-01-15T01:48:47;99983.44;;;7.14;80.13
72086;BME280;64750;52.134;5.424;2023-01-15T01:51:14;99987.91;;;7.12;80.47
72086;BME280;64750;52.134;5.424;2023-01-15T01:53:41;99988.84;;;7.11;79.88
72086;BME280;64750;52.134;5.424;2023-01-15T01:56:09;99989.78;;;7.10;80.13
72086;BME280;64750;52.134;5.424;2023-01-15T01:58:37;99997.63;;;7.10;79.75
72086;BME280;64750;52.134;5.424;2023-01-15T02:01:04;99993.22;;;7.11;80.00
72086;BME280;64750;52.134;5.424;2023-01-15T02:03:36;99989.03;;;7.08;79.48
72086;BME280;64750;52.134;5.424;2023-01-15T02:06:06;99987.34;;;7.07;79.24
72086;BME280;64750;52.134;5.424;2023-01-15T02:08:33;99976.06;;;7.06;78.34
72086;BME280;64750;52.134;5.424;2023-01-15T02:11:00;99969.97;;;7.06;78.68
72086;BME280;64750;52.134;5.424;2023-01-15T02:13:43;99974.47;;;7.04;78.50
72086;BME280;64750;52.134;5.424;2023-01-15T02:16:30;99982.31;;;7.04;78.28
72086;BME280;64750;52.134;5.424;2023-01-15T02:19:08;99972.69;;;7.04;78.51
72086;BME280;64750;52.134;5.424;2023-01-15T02:21:50;99970.19;;;7.03;78.44
72086;BME280;64750;52.134;5.424;2023-01-15T02:24:59;99966.81;;;7.01;78.35
72086;BME280;64750;52.134;5.424;2023-01-15T02:27:31;99968.50;;;7.02;78.15
72086;BME280;64750;52.134;5.424;2023-01-15T02:30:23;99960.75;;;7.00;78.10
72086;BME280;64750;52.134;5.424;2023-01-15T02:32:58;99964.38;;;6.98;78.44
72086;BME280;64750;52.134;5.424;2023-01-15T02:35:30;99975.75;;;6.97;78.01
72086;BME280;64750;52.134;5.424;2023-01-15T02:38:04;99969.72;;;6.96;78.48
72086;BME280;64750;52.134;5.424;2023-01-15T02:40:33;99970.53;;;6.97;78.10
72086;BME280;64750;52.134;5.424;2023-01-15T02:43:03;99978.47;;;6.95;78.10
72086;BME280;64750;52.134;5.424;2023-01-15T02:45:36;99969.88;;;6.93;78.00
72086;BME280;64750;52.134;5.424;2023-01-15T02:48:08;99978.56;;;6.94;77.92
72086;BME280;64750;52.134;5.424;2023-01-15T02:50:41;99969.03;;;6.93;77.61
72086;BME280;64750;52.134;5.424;2023-01-15T02:53:12;99965.66;;;6.90;77.77
72086;BME280;64750;52.134;5.424;2023-01-15T02:55:43;99968.28;;;6.90;77.50
72086;BME280;64750;52.134;5.424;2023-01-15T02:58:13;99961.31;;;6.91;77.76
72086;BME280;64750;52.134;5.424;2023-01-15T03:00:43;99965.75;;;6.89;77.54
72086;BME280;64750;52.134;5.424;2023-01-15T03:03:23;99961.38;;;6.89;77.04
72086;BME280;64750;52.134;5.424;2023-01-15T03:05:59;99962.31;;;6.88;77.18
72086;BME280;64750;52.134;5.424;2023-01-15T03:08:27;99958.19;;;6.84;77.10
72086;BME280;64750;52.134;5.424;2023-01-15T03:16:12;99953.53;;;6.89;77.12
72086;BME280;64750;52.134;5.424;2023-01-15T03:24:09;99965.19;;;6.84;76.87
72086;BME280;64750;52.134;5.424;2023-01-15T03:26:36;99966.88;;;6.85;76.78
72086;BME280;64750;52.134;5.424;2023-01-15T03:29:04;99961.56;;;6.86;76.96
72086;BME280;64750;52.134;5.424;2023-01-15T03:31:33;99961.66;;;6.85;76.87
72086;BME280;64750;52.134;5.424;2023-01-15T03:34:01;99960.78;;;6.84;76.85
72086;BME280;64750;52.134;5.424;2023-01-15T03:36:27;99957.44;;;6.82;76.59
72086;BME280;64750;52.134;5.424;2023-01-15T03:38:54;99952.22;;;6.82;76.76
72086;BME280;64750;52.134;5.424;2023-01-15T03:41:29;99946.09;;;6.83;76.59
72086;BME280;64750;52.134;5.424;2023-01-15T03:47:17;99951.38;;;6.82;76.24
72086;BME280;64750;52.134;5.424;2023-01-15T03:50:02;99959.41;;;6.79;76.76
72086;BME280;64750;52.134;5.424;2023-01-15T03:52:44;99967.50;;;6.74;76.24
72086;BME280;64750;52.134;5.424;2023-01-15T03:55:17;99955.19;;;6.76;76.72
72086;BME280;64750;52.134;5.424;2023-01-15T03:57:56;99956.13;;;6.75;76.31
72086;BME280;64750;52.134;5.424;2023-01-15T04:00:33;99943.97;;;6.74;76.21
72086;BME280;64750;52.134;5.424;2023-01-15T04:03:03;99947.34;;;6.76;76.33
72086;BME280;64750;52.134;5.424;2023-01-15T04:05:33;99943.16;;;6.73;76.36
72086;BME280;64750;52.134;5.424;2023-01-15T04:08:01;99951.09;;;6.72;76.21
72086;BME280;64750;52.134;5.424;2023-01-15T04:10:28;99939.88;;;6.70;76.45
72086;BME280;64750;52.134;5.424;2023-01-15T04:12:54;99945.88;;;6.72;76.73
72086;BME280;64750;52.134;5.424;2023-01-15T04:15:21;99949.31;;;6.72;76.54
72086;BME280;64750;52.134;5.424;2023-01-15T04:17:47;99947.56;;;6.73;76.53
72086;BME280;64750;52.134;5.424;2023-01-15T04:20:14;99947.56;;;6.73;76.56
72086;BME280;64750;52.134;5.424;2023-01-15T04:22:40;99954.44;;;6.74;76.78
72086;BME280;64750;52.134;5.424;2023-01-15T04:25:07;99948.47;;;6.72;76.53
72086;BME280;64750;52.134;5.424;2023-01-15T04:27:34;99944.19;;;6.71;76.86
72086;BME280;64750;52.134;5.424;2023-01-15T04:30:00;99945.88;;;6.72;77.05
72086;BME280;64750;52.134;5.424;2023-01-15T04:32:27;99947.56;;;6.73;77.05
72086;BME280;64750;52.134;5.424;2023-01-15T04:34:53;99941.47;;;6.72;76.75
72086;BME280;64750;52.134;5.424;2023-01-15T04:37:20;99934.66;;;6.70;76.50
72086;BME280;64750;52.134;5.424;2023-01-15T04:39:46;99938.13;;;6.70;76.34
72086;BME280;64750;52.134;5.424;2023-01-15T04:42:13;99933.06;;;6.67;76.50
72086;BME280;64750;52.134;5.424;2023-01-15T04:44:58;99939.97;;;6.68;76.74
72086;BME280;64750;52.134;5.424;2023-01-15T04:47:25;99935.78;;;6.66;76.62
72086;BME280;64750;52.134;5.424;2023-01-15T04:49:51;99948.91;;;6.64;76.77
72086;BME280;64750;52.134;5.424;2023-01-15T04:52:17;99936.69;;;6.65;76.59
72086;BME280;64750;52.134;5.424;2023-01-15T04:54:44;99936.88;;;6.62;76.51
72086;BME280;64750;52.134;5.424;2023-01-15T04:57:11;99939.59;;;6.60;76.15
72086;BME280;64750;52.134;5.424;2023-01-15T04:59:37;99938.72;;;6.60;76.23
72086;BME280;64750;52.134;5.424;2023-01-15T05:02:04;99946.47;;;6.61;75.68
72086;BME280;64750;52.134;5.424;2023-01-15T05:04:32;99932.59;;;6.61;76.26
72086;BME280;64750;52.134;5.424;2023-01-15T05:07:01;99942.22;;;6.60;76.09
72086;BME280;64750;52.134;5.424;2023-01-15T05:09:28;99943.03;;;6.61;76.45
72086;BME280;64750;52.134;5.424;2023-01-15T05:11:54;99944.88;;;6.59;76.09
72086;BME280;64750;52.134;5.424;2023-01-15T05:14:21;99943.19;;;6.57;76.14
72086;BME280;64750;52.134;5.424;2023-01-15T05:16:47;99948.41;;;6.57;76.47
72086;BME280;64750;52.134;5.424;2023-01-15T05:19:13;99935.38;;;6.57;76.22
72086;BME280;64750;52.134;5.424;2023-01-15T05:21:42;99938.72;;;6.60;76.39
72086;BME280;64750;52.134;5.424;2023-01-15T05:24:13;99936.97;;;6.60;76.37
72086;BME280;64750;52.134;5.424;2023-01-15T05:26:40;99929.31;;;6.57;76.59
72086;BME280;64750;52.134;5.424;2023-01-15T05:29:06;99930.13;;;6.57;77.04
72086;BME280;64750;52.134;5.424;2023-01-15T05:31:33;99927.63;;;6.56;77.10
72086;BME280;64750;52.134;5.424;2023-01-15T05:34:00;99931.09;;;6.56;77.41
72086;BME280;64750;52.134;5.424;2023-01-15T05:36:29;99929.50;;;6.54;77.30
72086;BME280;64750;52.134;5.424;2023-01-15T05:38:56;99929.50;;;6.54;77.26
72086;BME280;64750;52.134;5.424;2023-01-15T05:41:27;99924.34;;;6.52;77.47
72086;BME280;64750;52.134;5.424;2023-01-15T05:44:12;99921.00;;;6.50;77.49
72086;BME280;64750;52.134;5.424;2023-01-15T05:46:40;99908.88;;;6.49;77.50
72086;BME280;64750;52.134;5.424;2023-01-15T05:49:10;99918.41;;;6.50;77.77
72086;BME280;64750;52.134;5.424;2023-01-15T05:51:38;99914.28;;;6.46;77.48
72086;BME280;64750;52.134;5.424;2023-01-15T05:54:07;99923.03;;;6.45;77.72
72086;BME280;64750;52.134;5.424;2023-01-15T05:56:35;99916.13;;;6.44;77.53
72086;BME280;64750;52.134;5.424;2023-01-15T05:59:02;99933.72;;;6.40;77.04
72086;BME280;64750;52.134;5.424;2023-01-15T06:01:29;99932.91;;;6.40;76.89
72086;BME280;64750;52.134;5.424;2023-01-15T06:04:00;99935.50;;;6.40;77.30
72086;BME280;64750;52.134;5.424;2023-01-15T06:06:27;99933.91;;;6.37;77.19
72086;BME280;64750;52.134;5.424;2023-01-15T06:08:54;99930.53;;;6.35;77.17
72086;BME280;64750;52.134;5.424;2023-01-15T06:11:20;99931.31;;;6.37;77.21
72086;BME280;64750;52.134;5.424;2023-01-15T06:13:47;99926.91;;;6.38;77.05
72086;BME280;64750;52.134;5.424;2023-01-15T06:16:13;99920.88;;;6.37;77.39
72086;BME280;64750;52.134;5.424;2023-01-15T06:18:41;99929.53;;;6.38;77.23
72086;BME280;64750;52.134;5.424;2023-01-15T06:21:11;99939.41;;;6.33;77.25
72086;BME280;64750;52.134;5.424;2023-01-15T06:23:39;99941.09;;;6.34;77.31
72086;BME280;64750;52.134;5.424;2023-01-15T06:26:09;99940.31;;;6.32;77.12
72086;BME280;64750;52.134;5.424;2023-01-15T06:28:36;99950.13;;;6.28;77.06
72086;BME280;64750;52.134;5.424;2023-01-15T06:31:07;99961.72;;;6.22;76.78
72086;BME280;64750;52.134;5.424;2023-01-15T06:33:34;99964.66;;;6.16;76.94
72086;BME280;64750;52.134;5.424;2023-01-15T06:36:03;99957.13;;;6.12;76.50
72086;BME280;64750;52.134;5.424;2023-01-15T06:38:30;99977.31;;;6.08;76.30
72086;BME280;64750;52.134;5.424;2023-01-15T06:41:01;99958.63;;;6.00;75.41
72086;BME280;64750;52.134;5.424;2023-01-15T06:43:27;99954.38;;;5.97;75.28
72086;BME280;64750;52.134;5.424;2023-01-15T06:46:13;99955.38;;;5.95;75.38
72086;BME280;64750;52.134;5.424;2023-01-15T06:48:59;99950.16;;;5.95;75.15
72086;BME280;64750;52.134;5.424;2023-01-15T06:51:26;99950.16;;;5.95;75.29
72086;BME280;64750;52.134;5.424;2023-01-15T06:53:55;99955.38;;;5.95;75.40
72086;BME280;64750;52.134;5.424;2023-01-15T06:56:21;99956.34;;;5.94;75.64
72086;BME280;64750;52.134;5.424;2023-01-15T06:58:48;99952.97;;;5.91;75.92
72086;BME280;64750;52.134;5.424;2023-01-15T07:01:15;99950.94;;;5.97;75.96
72086;BME280;64750;52.134;5.424;2023-01-15T07:03:41;99944.03;;;5.96;76.25
72086;BME280;64750;52.134;5.424;2023-01-15T07:06:10;99946.81;;;5.93;76.50
72086;BME280;64750;52.134;5.424;2023-01-15T07:08:37;99950.16;;;5.95;76.85
72086;BME280;64750;52.134;5.424;2023-01-15T07:11:05;99955.56;;;5.91;76.71
72086;BME280;64750;52.134;5.424;2023-01-15T07:13:33;99952.88;;;5.93;77.43
72086;BME280;64750;52.134;5.424;2023-01-15T07:16:00;99951.84;;;5.96;77.27
72086;BME280;64750;52.134;5.424;2023-01-15T07:18:28;99953.88;;;5.90;77.25
72086;BME280;64750;52.134;5.424;2023-01-15T07:20:56;99951.47;;;5.87;77.24
72086;BME280;64750;52.134;5.424;2023-01-15T07:23:24;99948.06;;;5.85;77.37
72086;BME280;64750;52.134;5.424;2023-01-15T07:25:52;99949.19;;;5.81;76.81
72086;BME280;64750;52.134;5.424;2023-01-15T07:28:20;99957.00;;;5.81;76.81
72086;BME280;64750;52.134;5.424;2023-01-15T07:30:46;99961.44;;;5.79;76.55
72086;BME280;64750;52.134;5.424;2023-01-15T07:33:13;99953.72;;;5.78;76.16
72086;BME280;64750;52.134;5.424;2023-01-15T07:35:40;99951.19;;;5.76;76.11
72086;BME280;64750;52.134;5.424;2023-01-15T07:38:06;99946.91;;;5.75;76.11
72086;BME280;64750;52.134;5.424;2023-01-15T07:40:32;99951.38;;;5.73;75.82
72086;BME280;64750;52.134;5.424;2023-01-15T07:42:59;99948.75;;;5.73;75.85
72086;BME280;64750;52.134;5.424;2023-01-15T07:45:44;99967.84;;;5.73;75.83
72086;BME280;64750;52.134;5.424;2023-01-15T07:48:28;99954.03;;;5.71;75.64
72086;BME280;64750;52.134;5.424;2023-01-15T07:51:14;99945.47;;;5.69;74.86
72086;BME280;64750;52.134;5.424;2023-01-15T07:53:40;99946.31;;;5.70;75.02
72086;BME280;64750;52.134;5.424;2023-01-15T07:56:07;99939.41;;;5.69;75.00
72086;BME280;64750;52.134;5.424;2023-01-15T07:58:34;99946.41;;;5.68;75.06
72086;BME280;64750;52.134;5.424;2023-01-15T08:01:00;99930.84;;;5.67;74.53
72086;BME280;64750;52.134;5.424;2023-01-15T08:03:27;99936.88;;;5.67;74.32
72086;BME280;64750;52.134;5.424;2023-01-15T08:05:54;99947.41;;;5.66;73.87
72086;BME280;64750;52.134;5.424;2023-01-15T08:08:22;99948.16;;;5.68;73.85
72086;BME280;64750;52.134;5.424;2023-01-15T08:10:48;99934.28;;;5.67;73.88
72086;BME280;64750;52.134;5.424;2023-01-15T08:13:33;99943.69;;;5.70;73.68
72086;BME280;64750;52.134;5.424;2023-01-15T08:16:18;99952.44;;;5.69;73.52
72086;BME280;64750;52.134;5.424;2023-01-15T08:18:45;99942.78;;;5.71;73.76
72086;BME280;64750;52.134;5.424;2023-01-15T08:21:13;99945.97;;;5.76;73.91
72086;BME280;64750;52.134;5.424;2023-01-15T08:23:41;99955.81;;;5.71;74.00
72086;BME280;64750;52.134;5.424;2023-01-15T08:26:08;99955.03;;;5.69;73.95
72086;BME280;64750;52.134;5.424;2023-01-15T08:28:34;99950.75;;;5.68;73.88
72086;BME280;64750;52.134;5.424;2023-01-15T08:31:01;99945.63;;;5.66;74.00
72086;BME280;64750;52.134;5.424;2023-01-15T08:33:27;99939.41;;;5.69;74.45
72086;BME280;64750;52.134;5.424;2023-01-15T08:35:53;99941.91;;;5.70;73.78
72086;BME280;64750;52.134;5.424;2023-01-15T08:38:22;99949.00;;;5.68;73.68
72086;BME280;64750;52.134;5.424;2023-01-15T08:40:52;99942.94;;;5.68;73.83
72086;BME280;64750;52.134;5.424;2023-01-15T08:43:30;99938.47;;;5.70;73.70
72086;BME280;64750;52.134;5.424;2023-01-15T08:45:59;99933.88;;;5.75;73.63
72086;BME280;64750;52.134;5.424;2023-01-15T08:48:27;99937.06;;;5.80;73.16
72086;BME280;64750;52.134;5.424;2023-01-15T08:50:55;99938.75;;;5.81;73.13
72086;BME280;64750;52.134;5.424;2023-01-15T08:53:21;99931.59;;;5.85;73.37
72086;BME280;64750;52.134;5.424;2023-01-15T08:55:49;99936.72;;;5.86;72.94
72086;BME280;64750;52.134;5.424;2023-01-15T08:58:16;99933.19;;;5.87;73.56
72086;BME280;64750;52.134;5.424;2023-01-15T09:00:42;99921.84;;;5.88;73.75
72086;BME280;64750;52.134;5.424;2023-01-15T09:03:09;99933.00;;;5.90;73.92
72086;BME280;64750;52.134;5.424;2023-01-15T09:05:36;99929.50;;;5.91;73.74
72086;BME280;64750;52.134;5.424;2023-01-15T09:08:04;99937.31;;;5.91;74.37
72086;BME280;64750;52.134;5.424;2023-01-15T09:10:31;99944.22;;;5.93;74.39
72086;BME280;64750;52.134;5.424;2023-01-15T09:12:58;99945.03;;;5.93;74.60
72086;BME280;64750;52.134;5.424;2023-01-15T09:15:27;99944.94;;;5.95;74.46
72086;BME280;64750;52.134;5.424;2023-01-15T09:17:54;99939.81;;;5.93;74.86
72086;BME280;64750;52.134;5.424;2023-01-15T09:20:21;99940.69;;;5.94;75.02
72086;BME280;64750;52.134;5.424;2023-01-15T09:22:47;99936.09;;;5.99;74.87
72086;BME280;64750;52.134;5.424;2023-01-15T09:25:15;99944.66;;;6.01;74.85
72086;BME280;64750;52.134;5.424;2023-01-15T09:27:42;99943.63;;;6.03;74.66
72086;BME280;64750;52.134;5.424;2023-01-15T09:30:28;99948.63;;;6.08;75.07
72086;BME280;64750;52.134;5.424;2023-01-15T09:32:55;99944.13;;;6.10;74.64
72086;BME280;64750;52.134;5.424;2023-01-15T09:35:21;99942.28;;;6.12;74.71
72086;BME280;64750;52.134;5.424;2023-01-15T09:37:52;99945.47;;;6.17;74.70
72086;BME280;64750;52.134;5.424;2023-01-15T09:40:54;99925.38;;;6.19;74.53
72086;BME280;64750;52.134;5.424;2023-01-15T09:43:37;99939.25;;;6.20;74.60
72086;BME280;64750;52.134;5.424;2023-01-15T09:46:20;99940.00;;;6.22;74.65
72086;BME280;64750;52.134;5.424;2023-01-15T09:52:21;99938.06;;;6.26;74.66
72086;BME280;64750;52.134;5.424;2023-01-15T09:55:14;99943.34;;;6.24;74.37
72086;BME280;64750;52.134;5.424;2023-01-15T09:57:41;99934.69;;;6.23;74.00
72086;BME280;64750;52.134;5.424;2023-01-15T10:00:19;99947.66;;;6.25;73.88
72086;BME280;64750;52.134;5.424;2023-01-15T10:05:54;99945.06;;;6.25;73.73
72086;BME280;64750;52.134;5.424;2023-01-15T10:08:26;99944.94;;;6.27;73.99
72086;BME280;64750;52.134;5.424;2023-01-15T10:10:58;99932.56;;;6.30;74.05
72086;BME280;64750;52.134;5.424;2023-01-15T10:13:33;99931.41;;;6.36;74.21
72086;BME280;64750;52.134;5.424;2023-01-15T10:16:03;99928.41;;;6.42;74.46
72086;BME280;64750;52.134;5.424;2023-01-15T10:18:30;99928.06;;;6.48;74.18
72086;BME280;64750;52.134;5.424;2023-01-15T10:26:37;99940.81;;;6.69;74.00
72086;BME280;64750;52.134;5.424;2023-01-15T10:29:21;99941.56;;;6.71;73.06
72086;BME280;64750;52.134;5.424;2023-01-15T10:31:51;99950.78;;;6.77;73.38
72086;BME280;64750;52.134;5.424;2023-01-15T10:37:38;99950.53;;;6.81;73.05
72086;BME280;64750;52.134;5.424;2023-01-15T10:44:04;99940.44;;;6.75;72.49
72086;BME280;64750;52.134;5.424;2023-01-15T10:45:59;99949.50;;;6.69;72.12
72086;BME280;64750;52.134;5.424;2023-01-15T10:48:37;99947.91;;;6.67;72.44
72086;BME280;64750;52.134;5.424;2023-01-15T10:51:24;99939.22;;;6.66;72.82
72086;BME280;64750;52.134;5.424;2023-01-15T10:54:06;99959.03;;;6.70;72.97
72086;BME280;64750;52.134;5.424;2023-01-15T10:59:25;99971.78;;;6.75;72.51
72086;BME280;64750;52.134;5.424;2023-01-15T11:01:53;99970.09;;;6.74;71.96
72086;BME280;64750;52.134;5.424;2023-01-15T11:04:21;99952.78;;;6.73;71.73
72086;BME280;64750;52.134;5.424;2023-01-15T11:06:48;99964.88;;;6.74;72.03
72086;BME280;64750;52.134;5.424;2023-01-15T11:09:18;99952.59;;;6.76;72.69
72086;BME280;64750;52.134;5.424;2023-01-15T11:11:55;99973.38;;;6.78;71.61
72086;BME280;64750;52.134;5.424;2023-01-15T11:14:41;99952.38;;;6.79;71.19
72086;BME280;64750;52.134;5.424;2023-01-15T11:17:47;99961.19;;;6.78;71.97
72086;BME280;64750;52.134;5.424;2023-01-15T11:20:42;99949.03;;;6.77;71.45
72086;BME280;64750;52.134;5.424;2023-01-15T11:23:12;99954.19;;;6.79;71.47
72086;BME280;64750;52.134;5.424;2023-01-15T11:25:48;99958.56;;;6.78;71.83
72086;BME280;64750;52.134;5.424;2023-01-15T11:28:15;99950.72;;;6.78;72.39
72086;BME280;64750;52.134;5.424;2023-01-15T11:30:52;99951.75;;;6.76;72.36
72086;BME280;64750;52.134;5.424;2023-01-15T11:33:25;99951.66;;;6.77;72.66
72086;BME280;64750;52.134;5.424;2023-01-15T11:35:55;99958.63;;;6.77;72.44
72086;BME280;64750;52.134;5.424;2023-01-15T11:38:27;99970.88;;;6.76;72.84
72086;BME280;64750;52.134;5.424;2023-01-15T11:40:57;99965.53;;;6.78;73.11
72086;BME280;64750;52.134;5.424;2023-01-15T11:43:29;99955.97;;;6.78;73.75
72086;BME280;64750;52.134;5.424;2023-01-15T11:46:29;99960.31;;;6.78;73.60
72086;BME280;64750;52.134;5.424;2023-01-15T11:49:19;99959.66;;;6.74;73.60
72086;BME280;64750;52.134;5.424;2023-01-15T11:52:09;99956.41;;;6.70;73.63
72086;BME280;64750;52.134;5.424;2023-01-15T11:54:40;99959.94;;;6.69;74.26
72086;BME280;64750;52.134;5.424;2023-01-15T11:57:08;99971.97;;;6.72;74.46
72086;BME280;64750;52.134;5.424;2023-01-15T11:59:36;99948.63;;;6.69;74.70
72086;BME280;64750;52.134;5.424;2023-01-15T12:02:11;99963.38;;;6.70;74.77
72086;BME280;64750;52.134;5.424;2023-01-15T12:04:51;99968.59;;;6.70;75.07
72086;BME280;64750;52.134;5.424;2023-01-15T12:07:23;99969.63;;;6.67;75.25
72086;BME280;64750;52.134;5.424;2023-01-15T12:10:13;99953.13;;;6.67;75.50
72086;BME280;64750;52.134;5.424;2023-01-15T12:12:59;99954.81;;;6.68;75.78
72086;BME280;64750;52.134;5.424;2023-01-15T12:15:42;99943.50;;;6.67;76.50
72086;BME280;64750;52.134;5.424;2023-01-15T12:21:36;99957.78;;;6.62;77.84
72086;BME280;64750;52.134;5.424;2023-01-15T12:24:12;99945.91;;;6.56;78.94
72086;BME280;64750;52.134;5.424;2023-01-15T12:29:45;99955.88;;;6.49;80.94
72086;BME280;64750;52.134;5.424;2023-01-15T12:32:19;99965.16;;;6.39;81.98
72086;BME280;64750;52.134;5.424;2023-01-15T12:34:54;99943.78;;;6.32;82.44
72086;BME280;64750;52.134;5.424;2023-01-15T12:37:26;99955.41;;;6.27;83.37
72086;BME280;64750;52.134;5.424;2023-01-15T12:42:34;99963.75;;;6.17;84.17
72086;BME280;64750;52.134;5.424;2023-01-15T12:45:24;99968.19;;;6.15;84.52
72086;BME280;64750;52.134;5.424;2023-01-15T12:48:10;99973.41;;;6.15;84.72
72086;BME280;64750;52.134;5.424;2023-01-15T12:55:53;99971.09;;;6.11;85.57
72086;BME280;64750;52.134;5.424;2023-01-15T13:01:02;99958.38;;;6.04;86.11
72086;BME280;64750;52.134;5.424;2023-01-15T13:03:44;99963.50;;;6.06;86.25
72086;BME280;64750;52.134;5.424;2023-01-15T13:06:14;99969.72;;;6.03;86.41
72086;BME280;64750;52.134;5.424;2023-01-15T13:09:01;99971.31;;;6.06;86.68
72086;BME280;64750;52.134;5.424;2023-01-15T13:11:29;99964.41;;;6.05;86.49
72086;BME280;64750;52.134;5.424;2023-01-15T13:13:55;99969.63;;;6.05;86.66
72086;BME280;64750;52.134;5.424;2023-01-15T13:19:49;99972.81;;;6.10;86.55
72086;BME280;64750;52.134;5.424;2023-01-15T13:22:18;99971.09;;;6.11;86.62
72086;BME280;64750;52.134;5.424;2023-01-15T13:32:26;99987.22;;;6.17;85.69
72086;BME280;64750;52.134;5.424;2023-01-15T13:35:06;99981.91;;;6.19;85.76
72086;BME280;64750;52.134;5.424;2023-01-15T13:37:42;99972.44;;;6.18;85.26
72086;BME280;64750;52.134;5.424;2023-01-15T13:40:28;99974.28;;;6.16;84.72
72086;BME280;64750;52.134;5.424;2023-01-15T13:42:58;99977.72;;;6.16;84.75
72086;BME280;64750;52.134;5.424;2023-01-15T13:45:40;99989.75;;;6.19;84.65
72086;BME280;64750;52.134;5.424;2023-01-15T13:50:52;99992.09;;;6.23;84.83
72086;BME280;64750;52.134;5.424;2023-01-15T13:53:31;99992.94;;;6.24;85.11
72086;BME280;64750;52.134;5.424;2023-01-15T13:56:05;100004.06;;;6.28;85.19
72086;BME280;64750;52.134;5.424;2023-01-15T13:58:36;99994.38;;;6.30;85.75
72086;BME280;64750;52.134;5.424;2023-01-15T14:06:40;100003.38;;;6.24;86.14
72086;BME280;64750;52.134;5.424;2023-01-15T14:09:30;100004.25;;;6.24;86.59
72086;BME280;64750;52.134;5.424;2023-01-15T14:12:13;100003.38;;;6.24;86.54
72086;BME280;64750;52.134;5.424;2023-01-15T14:17:42;100010.47;;;6.22;87.17
72086;BME280;64750;52.134;5.424;2023-01-15T14:20:44;100003.66;;;6.19;87.13
72086;BME280;64750;52.134;5.424;2023-01-15T14:23:22;100008.00;;;6.19;87.22
72086;BME280;64750;52.134;5.424;2023-01-15T14:26:14;100015.00;;;6.18;87.80
72086;BME280;64750;52.134;5.424;2023-01-15T14:34:40;100015.09;;;6.17;87.02
72086;BME280;64750;52.134;5.424;2023-01-15T14:42:23;100028.13;;;6.01;86.65
72086;BME280;64750;52.134;5.424;2023-01-15T14:45:28;100038.56;;;6.01;87.02
72086;BME280;64750;52.134;5.424;2023-01-15T14:48:00;100037.56;;;6.03;87.38
72086;BME280;64750;52.134;5.424;2023-01-15T14:50:40;100052.19;;;6.06;87.73
72086;BME280;64750;52.134;5.424;2023-01-15T14:55:42;100044.47;;;6.04;88.29
72086;BME280;64750;52.134;5.424;2023-01-15T14:58:31;100045.22;;;6.06;88.69
72086;BME280;64750;52.134;5.424;2023-01-15T15:01:14;100048.56;;;6.08;88.90
72086;BME280;64750;52.134;5.424;2023-01-15T15:03:49;100057.09;;;6.12;88.88
72086;BME280;64750;52.134;5.424;2023-01-15T15:06:17;100053.56;;;6.13;88.62
72086;BME280;64750;52.134;5.424;2023-01-15T15:08:44;100064.00;;;6.13;88.76